< < Back
Terminal Aerodrome Forecast


Current Version              Previous Versions:   1  2  3  4  5  6  7  8  9  

Terminal Aerodrome Forecast

612
FTUS44 KMRX 041725
TAFTYS
TAF
KTYS 041725Z 0418/0518 23011KT P6SM VCSH SCT015 BKN025
      TEMPO 0419/0422 4SM SHRA BR BKN015
     FM042300 21006KT P6SM VCSH SCT025 BKN060
     FM050600 21005KT 5SM -SHRA BR SCT015 OVC025
     FM051000 22007KT P6SM VCSH SCT009 OVC015
     FM051500 20009KT P6SM VCSH SCT015 BKN025=



Latest METAR

234
SAUS80 KWBC 050200
MTRTYS
METAR KTYS 050153Z 00000KT 10SM FEW040 BKN070 OVC250 23/20 A3003 RMK AO2
SLP160 T02330200


USA.gov is the U.S. government's official web portal to all federal, state and local government web resources and services.